sensor_id;sensor_type;location;lat;lon;timestamp;P1;durP1;ratioP1;P2;durP2;ratioP2
68976;SDS011;56029;52.568;13.588;2023-04-05T00:01:07;11.43;;;4.70;;
68976;SDS011;56029;52.568;13.588;2023-04-05T00:03:36;10.02;;;4.72;;
68976;SDS011;56029;52.568;13.588;2023-04-05T00:06:02;10.68;;;5.05;;
68976;SDS011;56029;52.568;13.588;2023-04-05T00:08:29;10.10;;;4.72;;
68976;SDS011;56029;52.568;13.588;2023-04-05T00:10:55;10.70;;;4.80;;
68976;SDS011;56029;52.568;13.588;2023-04-05T00:13:21;11.93;;;4.93;;
68976;SDS011;56029;52.568;13.588;2023-04-05T00:15:47;9.95;;;4.93;;
68976;SDS011;56029;52.568;13.588;2023-04-05T00:18:13;8.88;;;4.55;;
68976;SDS011;56029;52.568;13.588;2023-04-05T00:20:50;10.55;;;4.57;;
68976;SDS011;56029;52.568;13.588;2023-04-05T00:23:16;10.65;;;4.60;;
68976;SDS011;56029;52.568;13.588;2023-04-05T00:25:43;10.60;;;4.32;;
68976;SDS011;56029;52.568;13.588;2023-04-05T00:28:09;9.05;;;4.00;;
68976;SDS011;56029;52.568;13.588;2023-04-05T00:30:35;8.68;;;4.13;;
68976;SDS011;56029;52.568;13.588;2023-04-05T00:33:01;8.80;;;3.65;;
68976;SDS011;56029;52.568;13.588;2023-04-05T00:35:27;8.20;;;3.83;;
68976;SDS011;56029;52.568;13.588;2023-04-05T00:37:52;8.23;;;3.83;;
68976;SDS011;56029;52.568;13.588;2023-04-05T00:40:19;8.15;;;4.00;;
68976;SDS011;56029;52.568;13.588;2023-04-05T00:42:45;8.82;;;4.07;;
68976;SDS011;56029;52.568;13.588;2023-04-05T00:45:11;8.07;;;4.03;;
68976;SDS011;56029;52.568;13.588;2023-04-05T00:47:38;7.50;;;3.53;;
68976;SDS011;56029;52.568;13.588;2023-04-05T00:50:05;10.13;;;3.90;;
68976;SDS011;56029;52.568;13.588;2023-04-05T00:52:33;10.43;;;4.60;;
68976;SDS011;56029;52.568;13.588;2023-04-05T00:54:59;8.30;;;3.88;;
68976;SDS011;56029;52.568;13.588;2023-04-05T00:57:25;9.30;;;4.18;;
68976;SDS011;56029;52.568;13.588;2023-04-05T00:59:51;9.63;;;4.23;;
68976;SDS011;56029;52.568;13.588;2023-04-05T01:02:17;10.07;;;4.37;;
68976;SDS011;56029;52.568;13.588;2023-04-05T01:04:54;9.00;;;4.00;;
68976;SDS011;56029;52.568;13.588;2023-04-05T01:07:43;8.75;;;4.00;;
68976;SDS011;56029;52.568;13.588;2023-04-05T01:10:13;9.48;;;4.60;;
68976;SDS011;56029;52.568;13.588;2023-04-05T01:12:41;8.57;;;3.73;;
68976;SDS011;56029;52.568;13.588;2023-04-05T01:15:07;9.93;;;4.20;;
68976;SDS011;56029;52.568;13.588;2023-04-05T01:17:33;8.02;;;4.15;;
68976;SDS011;56029;52.568;13.588;2023-04-05T01:20:07;8.20;;;3.85;;
68976;SDS011;56029;52.568;13.588;2023-04-05T01:25:37;8.23;;;3.73;;
68976;SDS011;56029;52.568;13.588;2023-04-05T01:28:29;9.48;;;4.07;;
68976;SDS011;56029;52.568;13.588;2023-04-05T01:31:14;8.18;;;4.03;;
68976;SDS011;56029;52.568;13.588;2023-04-05T01:34:49;8.60;;;3.70;;
68976;SDS011;56029;52.568;13.588;2023-04-05T01:37:01;7.43;;;3.40;;
68976;SDS011;56029;52.568;13.588;2023-04-05T01:39:31;7.70;;;3.60;;
68976;SDS011;56029;52.568;13.588;2023-04-05T01:41:59;8.77;;;3.67;;
68976;SDS011;56029;52.568;13.588;2023-04-05T01:44:26;8.50;;;3.90;;
68976;SDS011;56029;52.568;13.588;2023-04-05T01:46:52;9.52;;;4.00;;
68976;SDS011;56029;52.568;13.588;2023-04-05T01:49:18;7.77;;;3.53;;
68976;SDS011;56029;52.568;13.588;2023-04-05T01:51:44;10.07;;;4.00;;
68976;SDS011;56029;52.568;13.588;2023-04-05T01:54:10;8.88;;;3.90;;
68976;SDS011;56029;52.568;13.588;2023-04-05T01:56:35;8.80;;;3.70;;
68976;SDS011;56029;52.568;13.588;2023-04-05T01:59:01;8.67;;;4.00;;
68976;SDS011;56029;52.568;13.588;2023-04-05T02:01:26;9.10;;;4.25;;
68976;SDS011;56029;52.568;13.588;2023-04-05T02:03:52;9.52;;;4.00;;
68976;SDS011;56029;52.568;13.588;2023-04-05T02:06:17;8.70;;;4.13;;
68976;SDS011;56029;52.568;13.588;2023-04-05T02:08:43;9.90;;;4.38;;
68976;SDS011;56029;52.568;13.588;2023-04-05T02:11:08;11.02;;;4.70;;
68976;SDS011;56029;52.568;13.588;2023-04-05T02:13:34;8.77;;;4.20;;
68976;SDS011;56029;52.568;13.588;2023-04-05T02:15:59;8.73;;;4.67;;
68976;SDS011;56029;52.568;13.588;2023-04-05T02:18:25;9.05;;;4.50;;
68976;SDS011;56029;52.568;13.588;2023-04-05T02:21:05;9.23;;;4.32;;
68976;SDS011;56029;52.568;13.588;2023-04-05T02:23:35;10.60;;;4.60;;
68976;SDS011;56029;52.568;13.588;2023-04-05T02:26:01;8.95;;;3.92;;
68976;SDS011;56029;52.568;13.588;2023-04-05T02:28:27;13.98;;;5.15;;
68976;SDS011;56029;52.568;13.588;2023-04-05T02:30:53;8.97;;;4.23;;
68976;SDS011;56029;52.568;13.588;2023-04-05T02:33:19;11.80;;;4.60;;
68976;SDS011;56029;52.568;13.588;2023-04-05T02:35:47;9.05;;;4.05;;
68976;SDS011;56029;52.568;13.588;2023-04-05T02:38:14;8.27;;;4.28;;
68976;SDS011;56029;52.568;13.588;2023-04-05T02:40:40;7.83;;;3.63;;
68976;SDS011;56029;52.568;13.588;2023-04-05T02:43:06;7.97;;;3.88;;
68976;SDS011;56029;52.568;13.588;2023-04-05T02:45:32;8.00;;;3.30;;
68976;SDS011;56029;52.568;13.588;2023-04-05T02:47:57;8.20;;;3.50;;
68976;SDS011;56029;52.568;13.588;2023-04-05T02:50:23;7.23;;;3.53;;
68976;SDS011;56029;52.568;13.588;2023-04-05T02:52:49;7.30;;;3.25;;
68976;SDS011;56029;52.568;13.588;2023-04-05T02:55:15;7.38;;;3.55;;
68976;SDS011;56029;52.568;13.588;2023-04-05T02:57:44;7.60;;;3.00;;
68976;SDS011;56029;52.568;13.588;2023-04-05T03:00:10;7.38;;;3.47;;
68976;SDS011;56029;52.568;13.588;2023-04-05T03:02:36;8.65;;;3.72;;
68976;SDS011;56029;52.568;13.588;2023-04-05T03:05:04;8.95;;;3.83;;
68976;SDS011;56029;52.568;13.588;2023-04-05T03:07:30;10.23;;;3.90;;
68976;SDS011;56029;52.568;13.588;2023-04-05T03:09:57;7.88;;;3.75;;
68976;SDS011;56029;52.568;13.588;2023-04-05T03:12:23;9.55;;;4.00;;
68976;SDS011;56029;52.568;13.588;2023-04-05T03:14:49;8.07;;;4.00;;
68976;SDS011;56029;52.568;13.588;2023-04-05T03:17:15;8.90;;;4.05;;
68976;SDS011;56029;52.568;13.588;2023-04-05T03:19:40;8.60;;;3.80;;
68976;SDS011;56029;52.568;13.588;2023-04-05T03:22:06;9.30;;;3.80;;
68976;SDS011;56029;52.568;13.588;2023-04-05T03:24:32;9.27;;;3.60;;
68976;SDS011;56029;52.568;13.588;2023-04-05T03:27:01;8.30;;;3.65;;
68976;SDS011;56029;52.568;13.588;2023-04-05T03:29:28;8.10;;;3.60;;
68976;SDS011;56029;52.568;13.588;2023-04-05T03:31:56;10.00;;;4.00;;
68976;SDS011;56029;52.568;13.588;2023-04-05T03:34:22;9.43;;;3.85;;
68976;SDS011;56029;52.568;13.588;2023-04-05T03:36:53;7.68;;;3.80;;
68976;SDS011;56029;52.568;13.588;2023-04-05T03:39:19;8.68;;;3.70;;
68976;SDS011;56029;52.568;13.588;2023-04-05T03:41:45;7.30;;;3.47;;
68976;SDS011;56029;52.568;13.588;2023-04-05T03:44:10;8.70;;;3.87;;
68976;SDS011;56029;52.568;13.588;2023-04-05T03:46:36;8.50;;;3.63;;
68976;SDS011;56029;52.568;13.588;2023-04-05T03:49:04;8.52;;;3.58;;
68976;SDS011;56029;52.568;13.588;2023-04-05T03:51:31;8.20;;;3.80;;
68976;SDS011;56029;52.568;13.588;2023-04-05T03:53:57;8.75;;;3.60;;
68976;SDS011;56029;52.568;13.588;2023-04-05T03:56:23;7.83;;;3.67;;
68976;SDS011;56029;52.568;13.588;2023-04-05T03:58:51;8.43;;;3.80;;
68976;SDS011;56029;52.568;13.588;2023-04-05T04:01:17;8.35;;;3.67;;
68976;SDS011;56029;52.568;13.588;2023-04-05T04:03:43;9.07;;;4.03;;
68976;SDS011;56029;52.568;13.588;2023-04-05T04:06:09;9.85;;;4.20;;
68976;SDS011;56029;52.568;13.588;2023-04-05T04:08:34;9.68;;;4.07;;
68976;SDS011;56029;52.568;13.588;2023-04-05T04:11:00;10.00;;;4.37;;
68976;SDS011;56029;52.568;13.588;2023-04-05T04:13:25;9.50;;;3.87;;
68976;SDS011;56029;52.568;13.588;2023-04-05T04:15:51;10.07;;;4.28;;
68976;SDS011;56029;52.568;13.588;2023-04-05T04:18:16;12.20;;;4.27;;
68976;SDS011;56029;52.568;13.588;2023-04-05T04:20:42;9.20;;;4.00;;
68976;SDS011;56029;52.568;13.588;2023-04-05T04:23:07;10.03;;;4.60;;
68976;SDS011;56029;52.568;13.588;2023-04-05T04:25:34;8.68;;;3.75;;
68976;SDS011;56029;52.568;13.588;2023-04-05T04:28:01;11.70;;;3.95;;
68976;SDS011;56029;52.568;13.588;2023-04-05T04:30:28;10.60;;;4.32;;
68976;SDS011;56029;52.568;13.588;2023-04-05T04:32:53;8.70;;;4.53;;
68976;SDS011;56029;52.568;13.588;2023-04-05T04:35:23;10.90;;;3.95;;
68976;SDS011;56029;52.568;13.588;2023-04-05T04:37:57;11.23;;;4.40;;
68976;SDS011;56029;52.568;13.588;2023-04-05T04:40:24;9.25;;;4.05;;
68976;SDS011;56029;52.568;13.588;2023-04-05T04:42:50;9.40;;;4.30;;
68976;SDS011;56029;52.568;13.588;2023-04-05T04:45:16;8.70;;;4.07;;
68976;SDS011;56029;52.568;13.588;2023-04-05T04:47:43;8.00;;;3.75;;
68976;SDS011;56029;52.568;13.588;2023-04-05T04:50:10;8.48;;;3.88;;
68976;SDS011;56029;52.568;13.588;2023-04-05T04:52:37;9.50;;;4.35;;
68976;SDS011;56029;52.568;13.588;2023-04-05T04:55:04;13.05;;;6.38;;
68976;SDS011;56029;52.568;13.588;2023-04-05T04:57:30;13.48;;;5.78;;
68976;SDS011;56029;52.568;13.588;2023-04-05T04:59:56;10.23;;;4.38;;
68976;SDS011;56029;52.568;13.588;2023-04-05T05:02:25;12.53;;;4.20;;
68976;SDS011;56029;52.568;13.588;2023-04-05T05:04:52;8.98;;;4.28;;
68976;SDS011;56029;52.568;13.588;2023-04-05T05:07:18;10.23;;;3.90;;
68976;SDS011;56029;52.568;13.588;2023-04-05T05:09:44;8.60;;;3.87;;
68976;SDS011;56029;52.568;13.588;2023-04-05T05:12:10;9.18;;;3.70;;
68976;SDS011;56029;52.568;13.588;2023-04-05T05:14:35;9.07;;;3.72;;
68976;SDS011;56029;52.568;13.588;2023-04-05T05:17:01;8.50;;;3.47;;
68976;SDS011;56029;52.568;13.588;2023-04-05T05:19:29;7.05;;;3.30;;
68976;SDS011;56029;52.568;13.588;2023-04-05T05:21:55;10.00;;;3.55;;
68976;SDS011;56029;52.568;13.588;2023-04-05T05:24:21;8.88;;;3.17;;
68976;SDS011;56029;52.568;13.588;2023-04-05T05:26:47;7.60;;;3.67;;
68976;SDS011;56029;52.568;13.588;2023-04-05T05:29:12;8.63;;;3.20;;
68976;SDS011;56029;52.568;13.588;2023-04-05T05:31:38;10.40;;;4.40;;
68976;SDS011;56029;52.568;13.588;2023-04-05T05:34:03;10.43;;;3.80;;
68976;SDS011;56029;52.568;13.588;2023-04-05T05:36:29;7.73;;;3.50;;
68976;SDS011;56029;52.568;13.588;2023-04-05T05:38:55;8.82;;;3.58;;
68976;SDS011;56029;52.568;13.588;2023-04-05T05:41:20;9.73;;;3.83;;
68976;SDS011;56029;52.568;13.588;2023-04-05T05:43:46;9.38;;;3.80;;
68976;SDS011;56029;52.568;13.588;2023-04-05T05:46:12;10.30;;;4.10;;
68976;SDS011;56029;52.568;13.588;2023-04-05T05:48:38;11.00;;;4.30;;
68976;SDS011;56029;52.568;13.588;2023-04-05T05:51:04;9.63;;;3.58;;
68976;SDS011;56029;52.568;13.588;2023-04-05T05:53:35;8.90;;;3.53;;
68976;SDS011;56029;52.568;13.588;2023-04-05T05:56:01;7.72;;;3.80;;
68976;SDS011;56029;52.568;13.588;2023-04-05T05:58:27;8.50;;;3.90;;
68976;SDS011;56029;52.568;13.588;2023-04-05T06:00:52;9.77;;;3.75;;
68976;SDS011;56029;52.568;13.588;2023-04-05T06:03:24;9.93;;;4.15;;
68976;SDS011;56029;52.568;13.588;2023-04-05T06:05:56;8.80;;;3.90;;
68976;SDS011;56029;52.568;13.588;2023-04-05T06:08:24;12.85;;;4.70;;
68976;SDS011;56029;52.568;13.588;2023-04-05T06:10:52;10.75;;;4.40;;
68976;SDS011;56029;52.568;13.588;2023-04-05T06:13:18;8.05;;;3.80;;
68976;SDS011;56029;52.568;13.588;2023-04-05T06:15:44;8.83;;;4.10;;
68976;SDS011;56029;52.568;13.588;2023-04-05T06:18:09;11.68;;;4.35;;
68976;SDS011;56029;52.568;13.588;2023-04-05T06:20:35;10.50;;;4.07;;
68976;SDS011;56029;52.568;13.588;2023-04-05T06:23:05;11.70;;;4.40;;
68976;SDS011;56029;52.568;13.588;2023-04-05T06:25:30;10.35;;;4.10;;
68976;SDS011;56029;52.568;13.588;2023-04-05T06:27:56;9.03;;;4.13;;
68976;SDS011;56029;52.568;13.588;2023-04-05T06:30:21;9.03;;;4.07;;
68976;SDS011;56029;52.568;13.588;2023-04-05T06:32:47;8.48;;;3.78;;
68976;SDS011;56029;52.568;13.588;2023-04-05T06:35:18;11.13;;;4.13;;
68976;SDS011;56029;52.568;13.588;2023-04-05T06:37:47;9.75;;;4.38;;
68976;SDS011;56029;52.568;13.588;2023-04-05T06:40:12;8.87;;;4.27;;
68976;SDS011;56029;52.568;13.588;2023-04-05T06:42:39;10.30;;;3.65;;
68976;SDS011;56029;52.568;13.588;2023-04-05T06:45:04;9.13;;;3.70;;
68976;SDS011;56029;52.568;13.588;2023-04-05T06:47:34;9.23;;;4.00;;
68976;SDS011;56029;52.568;13.588;2023-04-05T06:50:01;9.85;;;4.15;;
68976;SDS011;56029;52.568;13.588;2023-04-05T06:52:27;8.18;;;3.72;;
68976;SDS011;56029;52.568;13.588;2023-04-05T06:54:53;9.00;;;3.72;;
68976;SDS011;56029;52.568;13.588;2023-04-05T06:57:19;8.80;;;3.30;;
68976;SDS011;56029;52.568;13.588;2023-04-05T06:59:44;7.77;;;3.37;;
68976;SDS011;56029;52.568;13.588;2023-04-05T07:02:10;9.82;;;2.95;;
68976;SDS011;56029;52.568;13.588;2023-04-05T07:04:36;9.03;;;3.07;;
68976;SDS011;56029;52.568;13.588;2023-04-05T07:07:03;6.70;;;3.05;;
68976;SDS011;56029;52.568;13.588;2023-04-05T07:09:31;7.85;;;3.30;;
68976;SDS011;56029;52.568;13.588;2023-04-05T07:11:58;7.70;;;3.33;;
68976;SDS011;56029;52.568;13.588;2023-04-05T07:14:24;9.73;;;3.30;;
68976;SDS011;56029;52.568;13.588;2023-04-05T07:16:50;9.00;;;3.40;;
68976;SDS011;56029;52.568;13.588;2023-04-05T07:19:16;7.73;;;3.23;;
68976;SDS011;56029;52.568;13.588;2023-04-05T07:21:42;8.07;;;3.55;;
68976;SDS011;56029;52.568;13.588;2023-04-05T07:24:08;8.57;;;3.70;;
68976;SDS011;56029;52.568;13.588;2023-04-05T07:26:33;9.77;;;3.40;;
68976;SDS011;56029;52.568;13.588;2023-04-05T07:29:00;9.68;;;3.90;;
68976;SDS011;56029;52.568;13.588;2023-04-05T07:31:26;9.75;;;3.78;;
68976;SDS011;56029;52.568;13.588;2023-04-05T07:33:52;8.37;;;3.63;;
68976;SDS011;56029;52.568;13.588;2023-04-05T07:36:18;8.98;;;3.75;;
68976;SDS011;56029;52.568;13.588;2023-04-05T07:38:43;8.37;;;3.13;;
68976;SDS011;56029;52.568;13.588;2023-04-05T07:41:09;8.20;;;3.80;;
68976;SDS011;56029;52.568;13.588;2023-04-05T07:43:35;10.02;;;3.65;;
68976;SDS011;56029;52.568;13.588;2023-04-05T07:46:02;8.13;;;3.88;;
68976;SDS011;56029;52.568;13.588;2023-04-05T07:48:28;9.50;;;4.40;;
68976;SDS011;56029;52.568;13.588;2023-04-05T07:50:54;10.27;;;4.78;;
68976;SDS011;56029;52.568;13.588;2023-04-05T07:53:19;10.23;;;4.00;;
68976;SDS011;56029;52.568;13.588;2023-04-05T07:55:45;8.37;;;3.63;;
68976;SDS011;56029;52.568;13.588;2023-04-05T07:58:11;9.25;;;3.90;;
68976;SDS011;56029;52.568;13.588;2023-04-05T08:00:37;9.07;;;3.05;;
68976;SDS011;56029;52.568;13.588;2023-04-05T08:03:02;7.43;;;3.20;;
68976;SDS011;56029;52.568;13.588;2023-04-05T08:05:31;9.73;;;3.42;;
68976;SDS011;56029;52.568;13.588;2023-04-05T08:07:56;8.33;;;3.67;;
68976;SDS011;56029;52.568;13.588;2023-04-05T08:10:25;8.45;;;3.50;;
68976;SDS011;56029;52.568;13.588;2023-04-05T08:12:51;7.40;;;3.13;;
68976;SDS011;56029;52.568;13.588;2023-04-05T08:15:17;9.13;;;3.28;;
68976;SDS011;56029;52.568;13.588;2023-04-05T08:17:42;7.50;;;3.20;;
68976;SDS011;56029;52.568;13.588;2023-04-05T08:20:08;8.68;;;3.28;;
68976;SDS011;56029;52.568;13.588;2023-04-05T08:22:34;6.87;;;3.20;;
68976;SDS011;56029;52.568;13.588;2023-04-05T08:24:59;7.32;;;3.40;;
68976;SDS011;56029;52.568;13.588;2023-04-05T08:27:25;5.47;;;2.50;;
68976;SDS011;56029;52.568;13.588;2023-04-05T08:29:50;7.10;;;2.80;;
68976;SDS011;56029;52.568;13.588;2023-04-05T08:32:16;7.10;;;2.87;;
68976;SDS011;56029;52.568;13.588;2023-04-05T08:34:41;4.23;;;2.30;;
68976;SDS011;56029;52.568;13.588;2023-04-05T08:37:07;6.63;;;2.70;;
68976;SDS011;56029;52.568;13.588;2023-04-05T08:39:35;6.55;;;2.70;;
68976;SDS011;56029;52.568;13.588;2023-04-05T08:42:10;7.07;;;2.67;;
68976;SDS011;56029;52.568;13.588;2023-04-05T08:44:40;7.00;;;2.50;;
68976;SDS011;56029;52.568;13.588;2023-04-05T08:47:07;5.03;;;2.03;;
68976;SDS011;56029;52.568;13.588;2023-04-05T08:49:33;5.72;;;2.30;;
68976;SDS011;56029;52.568;13.588;2023-04-05T08:51:59;5.07;;;2.30;;
68976;SDS011;56029;52.568;13.588;2023-04-05T08:54:26;5.33;;;2.10;;
68976;SDS011;56029;52.568;13.588;2023-04-05T08:56:51;6.90;;;2.40;;
68976;SDS011;56029;52.568;13.588;2023-04-05T08:59:18;4.68;;;2.03;;
68976;SDS011;56029;52.568;13.588;2023-04-05T09:01:45;4.40;;;2.03;;
68976;SDS011;56029;52.568;13.588;2023-04-05T09:04:17;3.90;;;1.80;;
68976;SDS011;56029;52.568;13.588;2023-04-05T09:06:46;4.47;;;2.00;;
68976;SDS011;56029;52.568;13.588;2023-04-05T09:09:14;4.25;;;1.85;;
68976;SDS011;56029;52.568;13.588;2023-04-05T09:11:42;6.70;;;2.15;;
68976;SDS011;56029;52.568;13.588;2023-04-05T09:14:08;5.37;;;2.07;;
68976;SDS011;56029;52.568;13.588;2023-04-05T09:16:35;3.33;;;1.63;;
68976;SDS011;56029;52.568;13.588;2023-04-05T09:19:02;5.68;;;2.38;;
68976;SDS011;56029;52.568;13.588;2023-04-05T09:21:28;4.87;;;2.10;;
68976;SDS011;56029;52.568;13.588;2023-04-05T09:23:54;5.43;;;1.95;;
68976;SDS011;56029;52.568;13.588;2023-04-05T09:26:20;4.20;;;1.80;;
68976;SDS011;56029;52.568;13.588;2023-04-05T09:28:50;3.55;;;1.80;;
68976;SDS011;56029;52.568;13.588;2023-04-05T09:31:32;3.85;;;2.00;;
68976;SDS011;56029;52.568;13.588;2023-04-05T09:34:02;5.97;;;1.90;;
68976;SDS011;56029;52.568;13.588;2023-04-05T09:36:29;4.57;;;1.95;;
68976;SDS011;56029;52.568;13.588;2023-04-05T09:39:07;3.07;;;1.70;;
68976;SDS011;56029;52.568;13.588;2023-04-05T09:41:34;4.60;;;1.90;;
68976;SDS011;56029;52.568;13.588;2023-04-05T09:44:00;4.45;;;1.90;;
68976;SDS011;56029;52.568;13.588;2023-04-05T09:46:30;5.82;;;1.77;;
68976;SDS011;56029;52.568;13.588;2023-04-05T09:48:58;4.30;;;1.67;;
68976;SDS011;56029;52.568;13.588;2023-04-05T09:51:35;3.20;;;1.58;;
68976;SDS011;56029;52.568;13.588;2023-04-05T09:54:06;4.32;;;1.90;;
68976;SDS011;56029;52.568;13.588;2023-04-05T09:56:33;3.80;;;1.80;;
68976;SDS011;56029;52.568;13.588;2023-04-05T09:59:05;4.32;;;1.95;;
68976;SDS011;56029;52.568;13.588;2023-04-05T10:01:32;4.40;;;1.90;;
68976;SDS011;56029;52.568;13.588;2023-04-05T10:03:58;4.85;;;2.05;;
68976;SDS011;56029;52.568;13.588;2023-04-05T10:06:58;4.72;;;2.00;;
68976;SDS011;56029;52.568;13.588;2023-04-05T10:09:16;5.70;;;2.05;;
68976;SDS011;56029;52.568;13.588;2023-04-05T10:11:43;4.90;;;2.10;;
68976;SDS011;56029;52.568;13.588;2023-04-05T10:14:10;5.73;;;2.40;;
68976;SDS011;56029;52.568;13.588;2023-04-05T10:16:37;4.03;;;2.00;;
68976;SDS011;56029;52.568;13.588;2023-04-05T10:19:18;6.77;;;2.30;;
68976;SDS011;56029;52.568;13.588;2023-04-05T10:21:52;4.95;;;2.42;;
68976;SDS011;56029;52.568;13.588;2023-04-05T10:27:28;5.03;;;2.28;;
68976;SDS011;56029;52.568;13.588;2023-04-05T10:30:06;4.28;;;2.08;;
68976;SDS011;56029;52.568;13.588;2023-04-05T10:32:40;4.90;;;2.30;;
68976;SDS011;56029;52.568;13.588;2023-04-05T10:40:37;4.53;;;2.22;;
68976;SDS011;56029;52.568;13.588;2023-04-05T10:43:07;5.35;;;2.40;;
68976;SDS011;56029;52.568;13.588;2023-04-05T10:45:41;5.60;;;2.87;;
68976;SDS011;56029;52.568;13.588;2023-04-05T10:48:15;6.05;;;3.10;;
68976;SDS011;56029;52.568;13.588;2023-04-05T10:50:49;5.45;;;2.70;;
68976;SDS011;56029;52.568;13.588;2023-04-05T10:53:15;6.53;;;2.67;;
68976;SDS011;56029;52.568;13.588;2023-04-05T10:55:42;6.72;;;2.67;;
68976;SDS011;56029;52.568;13.588;2023-04-05T10:58:09;6.63;;;2.67;;
68976;SDS011;56029;52.568;13.588;2023-04-05T11:00:39;6.65;;;2.70;;
68976;SDS011;56029;52.568;13.588;2023-04-05T11:03:05;6.07;;;2.80;;
68976;SDS011;56029;52.568;13.588;2023-04-05T11:05:34;5.70;;;2.67;;
68976;SDS011;56029;52.568;13.588;2023-04-05T11:08:02;5.88;;;2.75;;
68976;SDS011;56029;52.568;13.588;2023-04-05T11:10:35;5.53;;;2.53;;
68976;SDS011;56029;52.568;13.588;2023-04-05T11:13:02;4.20;;;2.33;;
68976;SDS011;56029;52.568;13.588;2023-04-05T11:15:29;5.80;;;2.87;;
68976;SDS011;56029;52.568;13.588;2023-04-05T11:18:03;7.70;;;3.00;;
68976;SDS011;56029;52.568;13.588;2023-04-05T11:20:38;6.82;;;2.63;;
68976;SDS011;56029;52.568;13.588;2023-04-05T11:23:12;6.75;;;2.92;;
68976;SDS011;56029;52.568;13.588;2023-04-05T11:25:50;6.97;;;2.70;;
68976;SDS011;56029;52.568;13.588;2023-04-05T11:30:50;7.65;;;3.17;;
68976;SDS011;56029;52.568;13.588;2023-04-05T11:36:43;7.05;;;3.05;;
68976;SDS011;56029;52.568;13.588;2023-04-05T11:41:44;7.20;;;3.03;;
68976;SDS011;56029;52.568;13.588;2023-04-05T11:44:14;6.45;;;2.90;;
68976;SDS011;56029;52.568;13.588;2023-04-05T11:46:44;6.13;;;3.15;;
68976;SDS011;56029;52.568;13.588;2023-04-05T11:49:14;5.78;;;2.78;;
68976;SDS011;56029;52.568;13.588;2023-04-05T11:51:40;5.30;;;2.53;;
68976;SDS011;56029;52.568;13.588;2023-04-05T11:54:13;6.80;;;2.90;;
68976;SDS011;56029;52.568;13.588;2023-04-05T11:57:02;5.88;;;2.95;;
68976;SDS011;56029;52.568;13.588;2023-04-05T11:59:31;6.43;;;2.88;;
68976;SDS011;56029;52.568;13.588;2023-04-05T12:02:01;8.30;;;2.80;;
68976;SDS011;56029;52.568;13.588;2023-04-05T12:04:29;6.15;;;2.63;;
68976;SDS011;56029;52.568;13.588;2023-04-05T12:09:36;5.88;;;3.00;;
68976;SDS011;56029;52.568;13.588;2023-04-05T12:12:22;6.57;;;2.80;;
68976;SDS011;56029;52.568;13.588;2023-04-05T12:14:47;5.80;;;2.60;;
68976;SDS011;56029;52.568;13.588;2023-04-05T12:17:13;6.07;;;3.00;;
68976;SDS011;56029;52.568;13.588;2023-04-05T12:19:38;6.53;;;2.60;;
68976;SDS011;56029;52.568;13.588;2023-04-05T12:22:04;6.28;;;2.80;;
68976;SDS011;56029;52.568;13.588;2023-04-05T12:24:30;5.17;;;2.63;;
68976;SDS011;56029;52.568;13.588;2023-04-05T12:26:56;5.00;;;2.28;;
68976;SDS011;56029;52.568;13.588;2023-04-05T12:29:22;5.43;;;2.70;;
68976;SDS011;56029;52.568;13.588;2023-04-05T12:31:49;5.10;;;2.22;;
68976;SDS011;56029;52.568;13.588;2023-04-05T12:34:15;5.95;;;2.35;;
68976;SDS011;56029;52.568;13.588;2023-04-05T12:36:48;4.53;;;2.20;;
68976;SDS011;56029;52.568;13.588;2023-04-05T12:39:15;5.40;;;2.08;;
68976;SDS011;56029;52.568;13.588;2023-04-05T12:41:41;6.43;;;2.67;;
68976;SDS011;56029;52.568;13.588;2023-04-05T12:44:10;5.05;;;2.20;;
68976;SDS011;56029;52.568;13.588;2023-04-05T12:46:40;6.35;;;2.45;;
68976;SDS011;56029;52.568;13.588;2023-04-05T12:49:09;5.57;;;2.30;;
68976;SDS011;56029;52.568;13.588;2023-04-05T12:51:44;6.07;;;2.60;;
68976;SDS011;56029;52.568;13.588;2023-04-05T12:54:11;5.03;;;2.25;;
68976;SDS011;56029;52.568;13.588;2023-04-05T12:56:38;6.88;;;2.78;;
68976;SDS011;56029;52.568;13.588;2023-04-05T12:59:05;7.15;;;2.63;;
68976;SDS011;56029;52.568;13.588;2023-04-05T13:01:32;6.37;;;2.80;;
68976;SDS011;56029;52.568;13.588;2023-04-05T13:03:58;7.55;;;3.25;;
68976;SDS011;56029;52.568;13.588;2023-04-05T13:06:29;7.32;;;3.30;;
68976;SDS011;56029;52.568;13.588;2023-04-05T13:08:58;6.35;;;2.75;;
68976;SDS011;56029;52.568;13.588;2023-04-05T13:11:24;6.07;;;2.50;;
68976;SDS011;56029;52.568;13.588;2023-04-05T13:13:49;7.57;;;3.55;;
68976;SDS011;56029;52.568;13.588;2023-04-05T13:16:15;7.40;;;3.23;;
68976;SDS011;56029;52.568;13.588;2023-04-05T13:18:44;7.18;;;3.15;;
68976;SDS011;56029;52.568;13.588;2023-04-05T13:21:09;5.72;;;2.80;;
68976;SDS011;56029;52.568;13.588;2023-04-05T13:23:36;7.33;;;2.70;;
68976;SDS011;56029;52.568;13.588;2023-04-05T13:26:02;6.82;;;2.92;;
68976;SDS011;56029;52.568;13.588;2023-04-05T13:28:28;5.32;;;2.22;;
68976;SDS011;56029;52.568;13.588;2023-04-05T13:30:54;11.60;;;2.80;;
68976;SDS011;56029;52.568;13.588;2023-04-05T13:33:20;6.27;;;2.83;;
68976;SDS011;56029;52.568;13.588;2023-04-05T13:35:46;4.90;;;2.30;;
68976;SDS011;56029;52.568;13.588;2023-04-05T13:38:11;6.67;;;2.40;;
68976;SDS011;56029;52.568;13.588;2023-04-05T13:40:37;7.10;;;2.60;;
68976;SDS011;56029;52.568;13.588;2023-04-05T13:43:03;6.63;;;3.03;;
68976;SDS011;56029;52.568;13.588;2023-04-05T13:45:29;5.60;;;2.58;;
68976;SDS011;56029;52.568;13.588;2023-04-05T13:48:01;5.85;;;2.53;;
68976;SDS011;56029;52.568;13.588;2023-04-05T13:50:29;7.13;;;2.78;;
68976;SDS011;56029;52.568;13.588;2023-04-05T13:52:54;5.13;;;2.63;;
68976;SDS011;56029;52.568;13.588;2023-04-05T13:55:20;4.47;;;2.40;;
68976;SDS011;56029;52.568;13.588;2023-04-05T13:57:45;5.03;;;2.20;;
68976;SDS011;56029;52.568;13.588;2023-04-05T14:00:11;5.68;;;2.30;;
68976;SDS011;56029;52.568;13.588;2023-04-05T14:02:39;6.82;;;2.30;;
68976;SDS011;56029;52.568;13.588;2023-04-05T14:05:06;5.25;;;2.45;;
68976;SDS011;56029;52.568;13.588;2023-04-05T14:07:32;3.77;;;2.00;;
68976;SDS011;56029;52.568;13.588;2023-04-05T14:09:59;4.93;;;2.20;;
68976;SDS011;56029;52.568;13.588;2023-04-05T14:12:24;6.33;;;2.50;;
68976;SDS011;56029;52.568;13.588;2023-04-05T14:14:50;4.38;;;2.10;;
68976;SDS011;56029;52.568;13.588;2023-04-05T14:17:15;4.87;;;2.40;;
68976;SDS011;56029;52.568;13.588;2023-04-05T14:19:41;5.72;;;2.40;;
68976;SDS011;56029;52.568;13.588;2023-04-05T14:22:07;6.28;;;2.55;;
68976;SDS011;56029;52.568;13.588;2023-04-05T14:24:33;5.70;;;2.40;;
68976;SDS011;56029;52.568;13.588;2023-04-05T14:26:59;5.53;;;2.40;;
68976;SDS011;56029;52.568;13.588;2023-04-05T14:29:25;4.53;;;2.20;;
68976;SDS011;56029;52.568;13.588;2023-04-05T14:31:53;5.07;;;2.50;;
68976;SDS011;56029;52.568;13.588;2023-04-05T14:34:19;6.88;;;2.03;;
68976;SDS011;56029;52.568;13.588;2023-04-05T14:36:44;5.30;;;2.30;;
68976;SDS011;56029;52.568;13.588;2023-04-05T14:39:10;5.28;;;2.40;;
68976;SDS011;56029;52.568;13.588;2023-04-05T14:41:36;6.03;;;2.30;;
68976;SDS011;56029;52.568;13.588;2023-04-05T14:44:02;4.60;;;2.35;;
68976;SDS011;56029;52.568;13.588;2023-04-05T14:46:27;5.50;;;2.60;;
68976;SDS011;56029;52.568;13.588;2023-04-05T14:48:53;5.13;;;2.40;;
68976;SDS011;56029;52.568;13.588;2023-04-05T14:51:18;5.07;;;2.37;;
68976;SDS011;56029;52.568;13.588;2023-04-05T14:53:44;5.10;;;2.38;;
68976;SDS011;56029;52.568;13.588;2023-04-05T14:56:10;5.47;;;2.47;;
68976;SDS011;56029;52.568;13.588;2023-04-05T14:58:36;4.72;;;2.47;;